sensor_id;sensor_type;location;lat;lon;timestamp;temperature;humidity
16964;DHT22;8598;50.508;10.436;2023-09-12T00:01:11;13.10;99.90
16964;DHT22;8598;50.508;10.436;2023-09-12T00:03:37;13.10;99.90
16964;DHT22;8598;50.508;10.436;2023-09-12T00:06:04;13.00;99.90
16964;DHT22;8598;50.508;10.436;2023-09-12T00:08:31;12.90;99.90
16964;DHT22;8598;50.508;10.436;2023-09-12T00:10:59;12.90;99.90
16964;DHT22;8598;50.508;10.436;2023-09-12T00:13:28;12.90;99.90
16964;DHT22;8598;50.508;10.436;2023-09-12T00:15:54;12.90;99.90
16964;DHT22;8598;50.508;10.436;2023-09-12T00:18:21;12.90;99.90
16964;DHT22;8598;50.508;10.436;2023-09-12T00:20:49;12.80;99.90
16964;DHT22;8598;50.508;10.436;2023-09-12T00:23:15;12.80;99.90
16964;DHT22;8598;50.508;10.436;2023-09-12T00:25:42;12.80;99.90
16964;DHT22;8598;50.508;10.436;2023-09-12T00:28:09;12.80;99.90
16964;DHT22;8598;50.508;10.436;2023-09-12T00:30:37;12.80;99.90
16964;DHT22;8598;50.508;10.436;2023-09-12T00:33:04;12.80;99.90
16964;DHT22;8598;50.508;10.436;2023-09-12T00:35:30;12.80;99.90
16964;DHT22;8598;50.508;10.436;2023-09-12T00:37:57;12.70;99.90
16964;DHT22;8598;50.508;10.436;2023-09-12T00:40:24;12.70;99.90
16964;DHT22;8598;50.508;10.436;2023-09-12T00:42:51;12.60;99.90
16964;DHT22;8598;50.508;10.436;2023-09-12T00:45:17;12.70;99.90
16964;DHT22;8598;50.508;10.436;2023-09-12T00:47:46;12.60;99.90
16964;DHT22;8598;50.508;10.436;2023-09-12T00:50:15;12.60;99.90
16964;DHT22;8598;50.508;10.436;2023-09-12T00:52:43;12.70;99.90
16964;DHT22;8598;50.508;10.436;2023-09-12T00:55:10;12.60;99.90
16964;DHT22;8598;50.508;10.436;2023-09-12T00:57:37;12.50;99.90
16964;DHT22;8598;50.508;10.436;2023-09-12T01:00:05;12.50;99.90
16964;DHT22;8598;50.508;10.436;2023-09-12T01:02:37;12.50;99.90
16964;DHT22;8598;50.508;10.436;2023-09-12T01:05:07;12.40;99.90
16964;DHT22;8598;50.508;10.436;2023-09-12T01:07:34;12.50;99.90
16964;DHT22;8598;50.508;10.436;2023-09-12T01:10:02;12.40;99.90
16964;DHT22;8598;50.508;10.436;2023-09-12T01:12:29;12.40;99.90
16964;DHT22;8598;50.508;10.436;2023-09-12T01:14:56;12.40;99.90
16964;DHT22;8598;50.508;10.436;2023-09-12T01:17:23;12.40;99.90
16964;DHT22;8598;50.508;10.436;2023-09-12T01:19:51;12.30;99.90
16964;DHT22;8598;50.508;10.436;2023-09-12T01:22:46;12.20;99.90
16964;DHT22;8598;50.508;10.436;2023-09-12T01:25:42;12.30;99.90
16964;DHT22;8598;50.508;10.436;2023-09-12T01:28:15;12.30;99.90
16964;DHT22;8598;50.508;10.436;2023-09-12T01:30:44;12.20;99.90
16964;DHT22;8598;50.508;10.436;2023-09-12T01:33:12;12.20;99.90
16964;DHT22;8598;50.508;10.436;2023-09-12T01:35:39;12.20;99.90
16964;DHT22;8598;50.508;10.436;2023-09-12T01:38:05;12.10;99.90
16964;DHT22;8598;50.508;10.436;2023-09-12T01:40:35;12.20;99.90
16964;DHT22;8598;50.508;10.436;2023-09-12T01:43:04;12.20;99.90
16964;DHT22;8598;50.508;10.436;2023-09-12T01:45:33;12.20;99.90
16964;DHT22;8598;50.508;10.436;2023-09-12T01:48:01;12.20;99.90
16964;DHT22;8598;50.508;10.436;2023-09-12T01:50:30;12.00;99.90
16964;DHT22;8598;50.508;10.436;2023-09-12T01:52:57;12.10;99.90
16964;DHT22;8598;50.508;10.436;2023-09-12T01:55:25;12.10;99.90
16964;DHT22;8598;50.508;10.436;2023-09-12T01:57:52;12.10;99.90
16964;DHT22;8598;50.508;10.436;2023-09-12T02:00:19;12.00;99.90
16964;DHT22;8598;50.508;10.436;2023-09-12T02:02:48;11.90;99.90
16964;DHT22;8598;50.508;10.436;2023-09-12T02:05:16;12.00;99.90
16964;DHT22;8598;50.508;10.436;2023-09-12T02:07:44;12.00;99.90
16964;DHT22;8598;50.508;10.436;2023-09-12T02:10:12;11.90;99.90
16964;DHT22;8598;50.508;10.436;2023-09-12T02:12:39;11.90;99.90
16964;DHT22;8598;50.508;10.436;2023-09-12T02:15:06;11.80;99.90
16964;DHT22;8598;50.508;10.436;2023-09-12T02:17:33;11.80;99.90
16964;DHT22;8598;50.508;10.436;2023-09-12T02:20:01;11.80;99.90
16964;DHT22;8598;50.508;10.436;2023-09-12T02:22:31;11.80;99.90
16964;DHT22;8598;50.508;10.436;2023-09-12T02:24:58;11.70;99.90
16964;DHT22;8598;50.508;10.436;2023-09-12T02:27:24;11.60;99.90
16964;DHT22;8598;50.508;10.436;2023-09-12T02:29:51;11.70;99.90
16964;DHT22;8598;50.508;10.436;2023-09-12T02:32:18;11.80;99.90
16964;DHT22;8598;50.508;10.436;2023-09-12T02:34:44;11.80;99.90
16964;DHT22;8598;50.508;10.436;2023-09-12T02:37:13;11.80;99.90
16964;DHT22;8598;50.508;10.436;2023-09-12T02:39:41;11.70;99.90
16964;DHT22;8598;50.508;10.436;2023-09-12T02:42:07;11.70;99.90
16964;DHT22;8598;50.508;10.436;2023-09-12T02:44:34;11.70;99.90
16964;DHT22;8598;50.508;10.436;2023-09-12T02:47:01;11.70;99.90
16964;DHT22;8598;50.508;10.436;2023-09-12T02:49:28;11.60;99.90
16964;DHT22;8598;50.508;10.436;2023-09-12T02:51:54;11.60;99.90
16964;DHT22;8598;50.508;10.436;2023-09-12T02:54:23;11.60;99.90
16964;DHT22;8598;50.508;10.436;2023-09-12T02:56:49;11.50;99.90
16964;DHT22;8598;50.508;10.436;2023-09-12T02:59:16;11.50;99.90
16964;DHT22;8598;50.508;10.436;2023-09-12T03:01:43;11.50;99.90
16964;DHT22;8598;50.508;10.436;2023-09-12T03:04:09;11.70;99.90
16964;DHT22;8598;50.508;10.436;2023-09-12T03:06:36;11.60;99.90
16964;DHT22;8598;50.508;10.436;2023-09-12T03:09:04;11.60;99.90
16964;DHT22;8598;50.508;10.436;2023-09-12T03:11:33;11.50;99.90
16964;DHT22;8598;50.508;10.436;2023-09-12T03:14:00;11.50;99.90
16964;DHT22;8598;50.508;10.436;2023-09-12T03:16:26;11.50;99.90
16964;DHT22;8598;50.508;10.436;2023-09-12T03:18:53;11.50;99.90
16964;DHT22;8598;50.508;10.436;2023-09-12T03:21:20;11.50;99.90
16964;DHT22;8598;50.508;10.436;2023-09-12T03:23:46;11.50;99.90
16964;DHT22;8598;50.508;10.436;2023-09-12T03:26:14;11.50;99.90
16964;DHT22;8598;50.508;10.436;2023-09-12T03:28:42;11.50;99.90
16964;DHT22;8598;50.508;10.436;2023-09-12T03:31:09;11.50;99.90
16964;DHT22;8598;50.508;10.436;2023-09-12T03:33:37;11.50;99.90
16964;DHT22;8598;50.508;10.436;2023-09-12T03:36:04;11.40;99.90
16964;DHT22;8598;50.508;10.436;2023-09-12T03:38:31;11.40;99.90
16964;DHT22;8598;50.508;10.436;2023-09-12T03:40:58;11.40;99.90
16964;DHT22;8598;50.508;10.436;2023-09-12T03:43:25;11.40;99.90
16964;DHT22;8598;50.508;10.436;2023-09-12T03:45:53;11.40;99.90
16964;DHT22;8598;50.508;10.436;2023-09-12T03:48:20;11.20;99.90
16964;DHT22;8598;50.508;10.436;2023-09-12T03:50:47;11.20;99.90
16964;DHT22;8598;50.508;10.436;2023-09-12T03:53:14;11.20;99.90
16964;DHT22;8598;50.508;10.436;2023-09-12T03:55:41;11.30;99.90
16964;DHT22;8598;50.508;10.436;2023-09-12T03:58:08;11.30;99.90
16964;DHT22;8598;50.508;10.436;2023-09-12T04:00:35;11.40;99.90
16964;DHT22;8598;50.508;10.436;2023-09-12T04:03:03;11.40;99.90
16964;DHT22;8598;50.508;10.436;2023-09-12T04:05:30;11.40;99.90
16964;DHT22;8598;50.508;10.436;2023-09-12T04:07:57;11.30;99.90
16964;DHT22;8598;50.508;10.436;2023-09-12T04:10:23;11.30;99.90
16964;DHT22;8598;50.508;10.436;2023-09-12T04:12:50;11.20;99.90
16964;DHT22;8598;50.508;10.436;2023-09-12T04:15:17;11.10;99.90
16964;DHT22;8598;50.508;10.436;2023-09-12T04:17:44;11.00;99.90
16964;DHT22;8598;50.508;10.436;2023-09-12T04:20:12;11.10;99.90
16964;DHT22;8598;50.508;10.436;2023-09-12T04:22:39;11.20;99.90
16964;DHT22;8598;50.508;10.436;2023-09-12T04:25:06;11.30;99.90
16964;DHT22;8598;50.508;10.436;2023-09-12T04:27:33;11.20;99.90
16964;DHT22;8598;50.508;10.436;2023-09-12T04:30:00;11.20;99.90
16964;DHT22;8598;50.508;10.436;2023-09-12T04:32:28;11.10;99.90
16964;DHT22;8598;50.508;10.436;2023-09-12T04:34:55;11.10;99.90
16964;DHT22;8598;50.508;10.436;2023-09-12T04:37:23;11.00;99.90
16964;DHT22;8598;50.508;10.436;2023-09-12T04:39:50;11.00;99.90
16964;DHT22;8598;50.508;10.436;2023-09-12T04:42:17;11.00;99.90
16964;DHT22;8598;50.508;10.436;2023-09-12T04:44:44;11.00;99.90
16964;DHT22;8598;50.508;10.436;2023-09-12T04:47:10;10.90;99.90
16964;DHT22;8598;50.508;10.436;2023-09-12T04:49:38;11.00;99.90
16964;DHT22;8598;50.508;10.436;2023-09-12T04:52:05;11.00;99.90
16964;DHT22;8598;50.508;10.436;2023-09-12T04:54:33;11.00;99.90
16964;DHT22;8598;50.508;10.436;2023-09-12T04:57:00;11.10;99.90
16964;DHT22;8598;50.508;10.436;2023-09-12T04:59:26;11.10;99.90
16964;DHT22;8598;50.508;10.436;2023-09-12T05:01:53;11.20;99.90
16964;DHT22;8598;50.508;10.436;2023-09-12T05:04:20;11.10;99.90
16964;DHT22;8598;50.508;10.436;2023-09-12T05:06:46;11.10;99.90
16964;DHT22;8598;50.508;10.436;2023-09-12T05:09:14;11.10;99.90
16964;DHT22;8598;50.508;10.436;2023-09-12T05:11:42;11.10;99.90
16964;DHT22;8598;50.508;10.436;2023-09-12T05:14:09;11.10;99.90
16964;DHT22;8598;50.508;10.436;2023-09-12T05:16:36;11.20;99.90
16964;DHT22;8598;50.508;10.436;2023-09-12T05:19:03;11.20;99.90
16964;DHT22;8598;50.508;10.436;2023-09-12T05:21:29;11.20;99.90
16964;DHT22;8598;50.508;10.436;2023-09-12T05:23:56;11.30;99.90
16964;DHT22;8598;50.508;10.436;2023-09-12T05:26:23;11.30;99.90
16964;DHT22;8598;50.508;10.436;2023-09-12T05:28:51;11.30;99.90
16964;DHT22;8598;50.508;10.436;2023-09-12T05:31:18;11.30;99.90
16964;DHT22;8598;50.508;10.436;2023-09-12T05:33:44;11.30;99.90
16964;DHT22;8598;50.508;10.436;2023-09-12T05:36:11;11.40;99.90
16964;DHT22;8598;50.508;10.436;2023-09-12T05:38:38;11.50;99.90
16964;DHT22;8598;50.508;10.436;2023-09-12T05:41:04;11.50;99.90
16964;DHT22;8598;50.508;10.436;2023-09-12T05:43:31;11.50;99.90
16964;DHT22;8598;50.508;10.436;2023-09-12T05:45:59;11.60;99.90
16964;DHT22;8598;50.508;10.436;2023-09-12T05:48:26;11.90;99.90
16964;DHT22;8598;50.508;10.436;2023-09-12T05:50:52;12.30;99.90
16964;DHT22;8598;50.508;10.436;2023-09-12T05:53:19;12.50;99.90
16964;DHT22;8598;50.508;10.436;2023-09-12T05:55:46;12.80;99.90
16964;DHT22;8598;50.508;10.436;2023-09-12T05:58:13;13.30;99.90
16964;DHT22;8598;50.508;10.436;2023-09-12T06:00:39;13.80;99.90
16964;DHT22;8598;50.508;10.436;2023-09-12T06:03:08;14.30;99.90
16964;DHT22;8598;50.508;10.436;2023-09-12T06:05:34;14.80;99.90
16964;DHT22;8598;50.508;10.436;2023-09-12T06:08:01;15.30;99.90
16964;DHT22;8598;50.508;10.436;2023-09-12T06:10:29;15.70;99.90
16964;DHT22;8598;50.508;10.436;2023-09-12T06:12:56;16.60;99.90
16964;DHT22;8598;50.508;10.436;2023-09-12T06:15:22;16.80;99.90
16964;DHT22;8598;50.508;10.436;2023-09-12T06:17:49;17.10;99.90
16964;DHT22;8598;50.508;10.436;2023-09-12T06:20:17;17.10;99.90
16964;DHT22;8598;50.508;10.436;2023-09-12T06:22:44;17.20;99.90
16964;DHT22;8598;50.508;10.436;2023-09-12T06:25:10;17.50;99.90
16964;DHT22;8598;50.508;10.436;2023-09-12T06:27:37;18.30;99.90
16964;DHT22;8598;50.508;10.436;2023-09-12T06:30:05;19.00;99.90
16964;DHT22;8598;50.508;10.436;2023-09-12T06:32:32;18.80;99.90
16964;DHT22;8598;50.508;10.436;2023-09-12T06:34:58;18.80;99.90
16964;DHT22;8598;50.508;10.436;2023-09-12T06:37:26;19.30;99.90
16964;DHT22;8598;50.508;10.436;2023-09-12T06:39:53;19.30;99.90
16964;DHT22;8598;50.508;10.436;2023-09-12T06:42:20;19.70;99.90
16964;DHT22;8598;50.508;10.436;2023-09-12T06:44:46;20.10;99.90
16964;DHT22;8598;50.508;10.436;2023-09-12T06:47:13;19.90;99.90
16964;DHT22;8598;50.508;10.436;2023-09-12T06:49:40;19.80;99.90
16964;DHT22;8598;50.508;10.436;2023-09-12T06:52:06;19.60;99.90
16964;DHT22;8598;50.508;10.436;2023-09-12T06:54:36;19.80;99.90
16964;DHT22;8598;50.508;10.436;2023-09-12T06:57:03;20.50;99.90
16964;DHT22;8598;50.508;10.436;2023-09-12T06:59:29;21.10;99.90
16964;DHT22;8598;50.508;10.436;2023-09-12T07:01:56;20.70;99.90
16964;DHT22;8598;50.508;10.436;2023-09-12T07:04:23;20.20;99.90
16964;DHT22;8598;50.508;10.436;2023-09-12T07:06:50;20.70;99.90
16964;DHT22;8598;50.508;10.436;2023-09-12T07:09:17;21.40;99.90
16964;DHT22;8598;50.508;10.436;2023-09-12T07:11:47;21.30;99.90
16964;DHT22;8598;50.508;10.436;2023-09-12T07:14:13;21.30;99.90
16964;DHT22;8598;50.508;10.436;2023-09-12T07:16:40;21.20;99.90
16964;DHT22;8598;50.508;10.436;2023-09-12T07:19:07;21.30;99.90
16964;DHT22;8598;50.508;10.436;2023-09-12T07:21:35;21.50;99.90
16964;DHT22;8598;50.508;10.436;2023-09-12T07:24:02;21.40;99.90
16964;DHT22;8598;50.508;10.436;2023-09-12T07:26:29;21.70;99.90
16964;DHT22;8598;50.508;10.436;2023-09-12T07:28:57;21.70;99.90
16964;DHT22;8598;50.508;10.436;2023-09-12T07:31:28;21.90;99.90
16964;DHT22;8598;50.508;10.436;2023-09-12T07:33:54;22.50;99.90
16964;DHT22;8598;50.508;10.436;2023-09-12T07:36:21;22.70;99.90
16964;DHT22;8598;50.508;10.436;2023-09-12T07:38:48;22.80;99.90
16964;DHT22;8598;50.508;10.436;2023-09-12T07:41:15;23.30;99.90
16964;DHT22;8598;50.508;10.436;2023-09-12T07:43:42;23.40;99.90
16964;DHT22;8598;50.508;10.436;2023-09-12T07:46:10;23.30;99.90
16964;DHT22;8598;50.508;10.436;2023-09-12T07:48:37;23.20;99.90
16964;DHT22;8598;50.508;10.436;2023-09-12T07:51:11;23.50;99.90
16964;DHT22;8598;50.508;10.436;2023-09-12T07:53:38;23.90;99.90
16964;DHT22;8598;50.508;10.436;2023-09-12T07:56:05;23.50;99.90
16964;DHT22;8598;50.508;10.436;2023-09-12T07:58:31;23.60;99.90
16964;DHT22;8598;50.508;10.436;2023-09-12T08:00:58;23.60;99.90
16964;DHT22;8598;50.508;10.436;2023-09-12T08:03:26;23.40;99.90
16964;DHT22;8598;50.508;10.436;2023-09-12T08:05:56;23.50;99.90
16964;DHT22;8598;50.508;10.436;2023-09-12T08:08:23;23.80;99.90
16964;DHT22;8598;50.508;10.436;2023-09-12T08:10:50;23.40;99.90
16964;DHT22;8598;50.508;10.436;2023-09-12T08:13:17;23.00;99.90
16964;DHT22;8598;50.508;10.436;2023-09-12T08:15:43;23.20;99.90
16964;DHT22;8598;50.508;10.436;2023-09-12T08:18:10;23.10;99.90
16964;DHT22;8598;50.508;10.436;2023-09-12T08:20:38;22.50;99.90
16964;DHT22;8598;50.508;10.436;2023-09-12T08:23:05;22.00;99.90
16964;DHT22;8598;50.508;10.436;2023-09-12T08:25:33;22.20;99.90
16964;DHT22;8598;50.508;10.436;2023-09-12T08:28:00;22.00;99.90
16964;DHT22;8598;50.508;10.436;2023-09-12T08:30:27;21.70;99.90
16964;DHT22;8598;50.508;10.436;2023-09-12T08:32:54;21.70;99.90
16964;DHT22;8598;50.508;10.436;2023-09-12T08:35:21;22.00;99.90
16964;DHT22;8598;50.508;10.436;2023-09-12T08:37:49;22.30;99.90
16964;DHT22;8598;50.508;10.436;2023-09-12T08:40:16;22.80;99.90
16964;DHT22;8598;50.508;10.436;2023-09-12T08:42:44;22.90;99.90
16964;DHT22;8598;50.508;10.436;2023-09-12T08:45:13;23.00;99.90
16964;DHT22;8598;50.508;10.436;2023-09-12T08:47:41;23.30;99.90
16964;DHT22;8598;50.508;10.436;2023-09-12T08:50:10;23.10;99.90
16964;DHT22;8598;50.508;10.436;2023-09-12T08:52:37;23.00;99.90
16964;DHT22;8598;50.508;10.436;2023-09-12T08:55:06;23.30;99.90
16964;DHT22;8598;50.508;10.436;2023-09-12T08:57:34;23.30;99.90
16964;DHT22;8598;50.508;10.436;2023-09-12T09:00:02;23.10;99.90
16964;DHT22;8598;50.508;10.436;2023-09-12T09:02:32;22.90;99.90
16964;DHT22;8598;50.508;10.436;2023-09-12T09:04:59;23.00;99.90
16964;DHT22;8598;50.508;10.436;2023-09-12T09:07:27;23.10;99.90
16964;DHT22;8598;50.508;10.436;2023-09-12T09:09:55;22.90;99.90
16964;DHT22;8598;50.508;10.436;2023-09-12T09:12:23;23.00;99.90
16964;DHT22;8598;50.508;10.436;2023-09-12T09:14:50;22.80;99.90
16964;DHT22;8598;50.508;10.436;2023-09-12T09:17:19;22.70;99.90
16964;DHT22;8598;50.508;10.436;2023-09-12T09:19:46;22.80;99.90
16964;DHT22;8598;50.508;10.436;2023-09-12T09:22:13;23.20;99.90
16964;DHT22;8598;50.508;10.436;2023-09-12T09:24:40;23.70;99.90
16964;DHT22;8598;50.508;10.436;2023-09-12T09:27:06;24.10;99.90
16964;DHT22;8598;50.508;10.436;2023-09-12T09:29:45;24.50;99.90
16964;DHT22;8598;50.508;10.436;2023-09-12T09:32:17;24.50;99.90
16964;DHT22;8598;50.508;10.436;2023-09-12T09:34:44;24.70;99.90
16964;DHT22;8598;50.508;10.436;2023-09-12T09:37:11;25.50;99.90
16964;DHT22;8598;50.508;10.436;2023-09-12T09:39:41;25.70;99.90
16964;DHT22;8598;50.508;10.436;2023-09-12T09:42:10;26.00;99.90
16964;DHT22;8598;50.508;10.436;2023-09-12T09:44:39;25.80;99.90
16964;DHT22;8598;50.508;10.436;2023-09-12T09:47:05;25.70;99.90
16964;DHT22;8598;50.508;10.436;2023-09-12T09:49:32;25.60;99.90
16964;DHT22;8598;50.508;10.436;2023-09-12T09:51:59;25.70;99.90
16964;DHT22;8598;50.508;10.436;2023-09-12T09:54:29;25.90;99.90
16964;DHT22;8598;50.508;10.436;2023-09-12T09:56:57;26.00;99.90
16964;DHT22;8598;50.508;10.436;2023-09-12T09:59:25;26.40;99.90
16964;DHT22;8598;50.508;10.436;2023-09-12T10:01:56;26.70;99.90
16964;DHT22;8598;50.508;10.436;2023-09-12T10:04:23;27.00;99.90
16964;DHT22;8598;50.508;10.436;2023-09-12T10:06:51;26.90;99.90
16964;DHT22;8598;50.508;10.436;2023-09-12T10:09:22;27.00;99.90
16964;DHT22;8598;50.508;10.436;2023-09-12T10:11:52;26.70;99.90
16964;DHT22;8598;50.508;10.436;2023-09-12T10:14:22;26.70;99.90
16964;DHT22;8598;50.508;10.436;2023-09-12T10:16:50;26.50;99.90
16964;DHT22;8598;50.508;10.436;2023-09-12T10:19:24;26.50;99.90
16964;DHT22;8598;50.508;10.436;2023-09-12T10:21:58;26.50;99.90
16964;DHT22;8598;50.508;10.436;2023-09-12T10:24:31;26.60;99.90
16964;DHT22;8598;50.508;10.436;2023-09-12T10:26:59;26.80;99.90
16964;DHT22;8598;50.508;10.436;2023-09-12T10:29:27;26.90;99.90
16964;DHT22;8598;50.508;10.436;2023-09-12T10:31:56;27.20;99.90
16964;DHT22;8598;50.508;10.436;2023-09-12T10:34:25;27.30;99.90
16964;DHT22;8598;50.508;10.436;2023-09-12T10:36:52;27.30;99.90
16964;DHT22;8598;50.508;10.436;2023-09-12T10:39:22;27.40;99.90
16964;DHT22;8598;50.508;10.436;2023-09-12T10:41:51;27.50;99.90
16964;DHT22;8598;50.508;10.436;2023-09-12T10:44:20;27.60;99.90
16964;DHT22;8598;50.508;10.436;2023-09-12T10:46:48;27.40;99.90
16964;DHT22;8598;50.508;10.436;2023-09-12T10:49:15;27.20;99.90
16964;DHT22;8598;50.508;10.436;2023-09-12T10:51:45;27.00;99.90
16964;DHT22;8598;50.508;10.436;2023-09-12T10:54:13;26.90;99.90
16964;DHT22;8598;50.508;10.436;2023-09-12T10:56:41;26.70;99.90
16964;DHT22;8598;50.508;10.436;2023-09-12T10:59:10;26.60;99.90
16964;DHT22;8598;50.508;10.436;2023-09-12T11:01:39;26.40;99.90
16964;DHT22;8598;50.508;10.436;2023-09-12T11:04:31;26.40;99.90
16964;DHT22;8598;50.508;10.436;2023-09-12T11:07:01;26.60;99.90
16964;DHT22;8598;50.508;10.436;2023-09-12T11:09:28;26.70;99.90
16964;DHT22;8598;50.508;10.436;2023-09-12T11:11:57;27.00;99.90
16964;DHT22;8598;50.508;10.436;2023-09-12T11:14:25;27.10;99.90
16964;DHT22;8598;50.508;10.436;2023-09-12T11:17:20;27.40;99.90
16964;DHT22;8598;50.508;10.436;2023-09-12T11:19:48;27.50;99.90
16964;DHT22;8598;50.508;10.436;2023-09-12T11:22:28;27.80;99.90
16964;DHT22;8598;50.508;10.436;2023-09-12T11:24:56;27.90;99.90
16964;DHT22;8598;50.508;10.436;2023-09-12T11:27:25;28.00;99.90
16964;DHT22;8598;50.508;10.436;2023-09-12T11:30:03;28.40;99.90
16964;DHT22;8598;50.508;10.436;2023-09-12T11:32:31;28.50;99.90
16964;DHT22;8598;50.508;10.436;2023-09-12T11:34:59;28.30;99.90
16964;DHT22;8598;50.508;10.436;2023-09-12T11:37:32;28.40;99.90
16964;DHT22;8598;50.508;10.436;2023-09-12T11:40:01;28.50;99.90
16964;DHT22;8598;50.508;10.436;2023-09-12T11:42:28;28.60;99.90
16964;DHT22;8598;50.508;10.436;2023-09-12T11:44:56;28.70;99.90
16964;DHT22;8598;50.508;10.436;2023-09-12T11:47:23;28.70;99.90
16964;DHT22;8598;50.508;10.436;2023-09-12T11:49:50;28.50;99.90
16964;DHT22;8598;50.508;10.436;2023-09-12T11:52:17;28.60;99.90
16964;DHT22;8598;50.508;10.436;2023-09-12T11:54:46;28.60;99.90
16964;DHT22;8598;50.508;10.436;2023-09-12T11:57:15;28.50;99.90
16964;DHT22;8598;50.508;10.436;2023-09-12T11:59:44;28.50;99.90
16964;DHT22;8598;50.508;10.436;2023-09-12T12:02:12;28.40;99.90
16964;DHT22;8598;50.508;10.436;2023-09-12T12:04:40;28.60;99.90
16964;DHT22;8598;50.508;10.436;2023-09-12T12:07:07;28.50;99.90
16964;DHT22;8598;50.508;10.436;2023-09-12T12:09:34;28.40;99.90
16964;DHT22;8598;50.508;10.436;2023-09-12T12:12:09;28.20;99.90
16964;DHT22;8598;50.508;10.436;2023-09-12T12:14:36;28.20;99.90
16964;DHT22;8598;50.508;10.436;2023-09-12T12:17:08;28.20;99.90
16964;DHT22;8598;50.508;10.436;2023-09-12T12:19:35;28.20;99.90
16964;DHT22;8598;50.508;10.436;2023-09-12T12:22:03;28.30;99.90
16964;DHT22;8598;50.508;10.436;2023-09-12T12:24:36;28.40;99.90
16964;DHT22;8598;50.508;10.436;2023-09-12T12:27:05;28.50;99.90
16964;DHT22;8598;50.508;10.436;2023-09-12T12:29:34;28.30;99.90
16964;DHT22;8598;50.508;10.436;2023-09-12T12:32:00;28.30;99.90
16964;DHT22;8598;50.508;10.436;2023-09-12T12:34:27;28.20;99.90
16964;DHT22;8598;50.508;10.436;2023-09-12T12:36:54;28.50;99.90
16964;DHT22;8598;50.508;10.436;2023-09-12T12:39:21;28.50;99.90
16964;DHT22;8598;50.508;10.436;2023-09-12T12:41:52;28.50;99.90
16964;DHT22;8598;50.508;10.436;2023-09-12T12:44:20;28.50;99.90
16964;DHT22;8598;50.508;10.436;2023-09-12T12:46:51;28.50;99.90
16964;DHT22;8598;50.508;10.436;2023-09-12T12:49:18;28.50;99.90
16964;DHT22;8598;50.508;10.436;2023-09-12T12:51:46;28.50;99.90
16964;DHT22;8598;50.508;10.436;2023-09-12T12:54:13;28.50;99.90
16964;DHT22;8598;50.508;10.436;2023-09-12T12:56:40;28.30;99.90
16964;DHT22;8598;50.508;10.436;2023-09-12T12:59:08;28.50;99.90
16964;DHT22;8598;50.508;10.436;2023-09-12T13:01:37;28.30;99.90
16964;DHT22;8598;50.508;10.436;2023-09-12T13:04:05;28.40;99.90
16964;DHT22;8598;50.508;10.436;2023-09-12T13:06:32;28.40;99.90
16964;DHT22;8598;50.508;10.436;2023-09-12T13:09:01;28.60;99.90
16964;DHT22;8598;50.508;10.436;2023-09-12T13:11:30;28.60;99.90
16964;DHT22;8598;50.508;10.436;2023-09-12T13:13:57;28.50;99.90
16964;DHT22;8598;50.508;10.436;2023-09-12T13:16:24;28.60;99.90
16964;DHT22;8598;50.508;10.436;2023-09-12T13:18:52;28.70;99.90
16964;DHT22;8598;50.508;10.436;2023-09-12T13:21:18;28.70;99.90
16964;DHT22;8598;50.508;10.436;2023-09-12T13:23:45;28.60;99.90
16964;DHT22;8598;50.508;10.436;2023-09-12T13:26:12;28.50;99.90
16964;DHT22;8598;50.508;10.436;2023-09-12T13:28:39;28.60;99.90
16964;DHT22;8598;50.508;10.436;2023-09-12T13:31:06;28.70;99.90
16964;DHT22;8598;50.508;10.436;2023-09-12T13:33:33;28.60;99.90
16964;DHT22;8598;50.508;10.436;2023-09-12T13:36:01;28.70;99.90
16964;DHT22;8598;50.508;10.436;2023-09-12T13:38:29;28.80;99.90
16964;DHT22;8598;50.508;10.436;2023-09-12T13:40:55;28.90;99.90
16964;DHT22;8598;50.508;10.436;2023-09-12T13:43:22;28.70;99.90
16964;DHT22;8598;50.508;10.436;2023-09-12T13:45:49;28.90;99.90
16964;DHT22;8598;50.508;10.436;2023-09-12T13:48:16;28.80;99.90
16964;DHT22;8598;50.508;10.436;2023-09-12T13:50:43;28.80;99.90
16964;DHT22;8598;50.508;10.436;2023-09-12T13:53:11;28.80;99.90
16964;DHT22;8598;50.508;10.436;2023-09-12T13:55:38;28.80;99.90
16964;DHT22;8598;50.508;10.436;2023-09-12T13:58:05;28.80;99.90
16964;DHT22;8598;50.508;10.436;2023-09-12T14:00:33;28.90;99.90
16964;DHT22;8598;50.508;10.436;2023-09-12T14:03:00;28.80;99.90
16964;DHT22;8598;50.508;10.436;2023-09-12T14:05:27;28.90;99.90
16964;DHT22;8598;50.508;10.436;2023-09-12T14:07:54;29.00;99.90
16964;DHT22;8598;50.508;10.436;2023-09-12T14:10:22;29.00;99.90
16964;DHT22;8598;50.508;10.436;2023-09-12T14:12:49;29.00;99.90
16964;DHT22;8598;50.508;10.436;2023-09-12T14:15:16;29.10;99.90
16964;DHT22;8598;50.508;10.436;2023-09-12T14:17:42;29.10;99.90
16964;DHT22;8598;50.508;10.436;2023-09-12T14:20:10;29.10;99.90
16964;DHT22;8598;50.508;10.436;2023-09-12T14:22:40;29.20;99.90
16964;DHT22;8598;50.508;10.436;2023-09-12T14:25:07;29.10;99.90
16964;DHT22;8598;50.508;10.436;2023-09-12T14:27:36;29.10;99.90
16964;DHT22;8598;50.508;10.436;2023-09-12T14:30:03;29.20;99.90
16964;DHT22;8598;50.508;10.436;2023-09-12T14:32:30;29.20;99.90
16964;DHT22;8598;50.508;10.436;2023-09-12T14:34:57;29.10;99.90
16964;DHT22;8598;50.508;10.436;2023-09-12T14:37:24;28.80;99.90
16964;DHT22;8598;50.508;10.436;2023-09-12T14:39:53;29.00;99.90
16964;DHT22;8598;50.508;10.436;2023-09-12T14:42:20;29.10;99.90
16964;DHT22;8598;50.508;10.436;2023-09-12T14:44:48;29.10;99.90
16964;DHT22;8598;50.508;10.436;2023-09-12T14:47:15;29.10;99.90
16964;DHT22;8598;50.508;10.436;2023-09-12T14:49:42;29.10;99.90
16964;DHT22;8598;50.508;10.436;2023-09-12T14:52:09;29.00;99.90
16964;DHT22;8598;50.508;10.436;2023-09-12T14:54:35;28.90;99.90
16964;DHT22;8598;50.508;10.436;2023-09-12T14:57:02;28.80;99.90
16964;DHT22;8598;50.508;10.436;2023-09-12T14:59:29;28.70;99.90
16964;DHT22;8598;50.508;10.436;2023-09-12T15:01:57;28.80;99.90
16964;DHT22;8598;50.508;10.436;2023-09-12T15:04:24;28.70;99.90
16964;DHT22;8598;50.508;10.436;2023-09-12T15:06:50;28.70;99.90
16964;DHT22;8598;50.508;10.436;2023-09-12T15:09:17;28.70;99.90
16964;DHT22;8598;50.508;10.436;2023-09-12T15:11:44;28.60;99.90
16964;DHT22;8598;50.508;10.436;2023-09-12T15:14:11;28.50;99.90
16964;DHT22;8598;50.508;10.436;2023-09-12T15:16:37;28.40;99.90
16964;DHT22;8598;50.508;10.436;2023-09-12T15:19:05;28.40;99.90
16964;DHT22;8598;50.508;10.436;2023-09-12T15:21:32;28.00;99.90
16964;DHT22;8598;50.508;10.436;2023-09-12T15:23:59;28.00;99.90
16964;DHT22;8598;50.508;10.436;2023-09-12T15:26:25;27.90;99.90
16964;DHT22;8598;50.508;10.436;2023-09-12T15:28:52;27.90;99.90
16964;DHT22;8598;50.508;10.436;2023-09-12T15:31:19;27.80;99.90
16964;DHT22;8598;50.508;10.436;2023-09-12T15:33:45;27.70;99.90